Time;durP1;ratioP1;P1;durP2;ratioP2;P2;SDS_P1;SDS_P2;PMS_P1;PMS_P2;Temp;Humidity;BMP_temperature;BMP_pressure;BME280_temperature;BME280_humidity;BME280_pressure;Samples;Min_cycle;Max_cycle;Signal;HPM_P1;HPM_P2
2022/03/14 00:02:03;;;;;;;7.15;4.15;;;;;;;;;;5099801;28;20054;-72
2022/03/14 00:04:29;;;;;;;6.63;3.70;;;;;;;;;;5105679;28;20039;-72
2022/03/14 00:06:55;;;;;;;6.93;4.38;;;;;;;;;;5107679;28;20752;-72
2022/03/14 00:09:20;;;;;;;8.20;4.63;;;;;;;;;;5110765;27;20050;-72
2022/03/14 00:11:46;;;;;;;8.10;4.75;;;;;;;;;;5111174;27;20012;-72
2022/03/14 00:14:12;;;;;;;8.10;4.60;;;;;;;;;;5110550;27;20019;-72
2022/03/14 00:16:41;;;;;;;8.02;4.75;;;;;;;;;;5099318;28;20468;-72
2022/03/14 00:19:07;;;;;;;6.85;4.55;;;;;;;;;;5108892;28;20042;-72
2022/03/14 00:21:38;;;;;;;8.70;4.82;;;;;;;;;;5106613;28;20036;-72
2022/03/14 00:24:03;;;;;;;9.25;4.97;;;;;;;;;;5115191;27;20061;-72
2022/03/14 00:26:30;;;;;;;9.82;5.00;;;;;;;;;;5109022;28;20035;-72
2022/03/14 00:28:55;;;;;;;8.80;5.10;;;;;;;;;;5108778;27;20122;-72
2022/03/14 00:31:22;;;;;;;8.38;5.45;;;;;;;;;;5103663;27;20607;-72
2022/03/14 00:33:48;;;;;;;7.90;5.28;;;;;;;;;;5101681;27;20122;-72
2022/03/14 00:36:13;;;;;;;8.98;5.25;;;;;;;;;;5104507;28;20039;-72
2022/03/14 00:38:39;;;;;;;8.25;5.13;;;;;;;;;;5097300;28;20024;-72
2022/03/14 00:41:06;;;;;;;8.77;5.45;;;;;;;;;;5102512;28;20122;-72
2022/03/14 00:43:33;;;;;;;9.70;6.07;;;;;;;;;;5107634;27;20089;-72
2022/03/14 00:45:58;;;;;;;11.50;6.53;;;;;;;;;;5104596;28;20514;-72
2022/03/14 00:48:24;;;;;;;11.68;6.40;;;;;;;;;;5102677;27;20523;-72
2022/03/14 00:50:50;;;;;;;10.77;6.18;;;;;;;;;;5100917;27;20019;-72
2022/03/14 00:53:16;;;;;;;11.70;7.15;;;;;;;;;;5109919;27;20499;-72
2022/03/14 00:55:41;;;;;;;15.35;7.55;;;;;;;;;;5120931;27;20101;-72
2022/03/14 00:58:07;;;;;;;14.13;8.07;;;;;;;;;;5108328;28;20142;-72
2022/03/14 01:00:33;;;;;;;16.02;7.70;;;;;;;;;;5107487;27;20113;-72
2022/03/14 01:02:59;;;;;;;18.20;8.07;;;;;;;;;;5106514;28;20039;-72
2022/03/14 01:05:25;;;;;;;15.60;8.02;;;;;;;;;;5108019;28;20023;-72
2022/03/14 01:07:51;;;;;;;17.55;8.18;;;;;;;;;;5107841;27;20028;-72
2022/03/14 01:10:16;;;;;;;15.80;7.95;;;;;;;;;;5107721;27;20444;-72
2022/03/14 01:12:41;;;;;;;15.77;8.35;;;;;;;;;;5103484;27;20117;-73
2022/03/14 01:15:07;;;;;;;16.90;8.50;;;;;;;;;;5107987;27;20034;-72
2022/03/14 01:17:33;;;;;;;16.88;8.32;;;;;;;;;;5090440;28;20034;-72
2022/03/14 01:19:58;;;;;;;17.13;9.25;;;;;;;;;;5106268;27;20436;-72
2022/03/14 01:22:23;;;;;;;18.30;9.27;;;;;;;;;;5107844;27;20512;-72
2022/03/14 01:24:49;;;;;;;16.60;8.23;;;;;;;;;;5107647;27;20036;-73
2022/03/14 01:27:14;;;;;;;14.80;8.57;;;;;;;;;;5107342;27;20039;-72
2022/03/14 01:29:39;;;;;;;18.00;9.18;;;;;;;;;;5093647;28;20027;-72
2022/03/14 01:32:06;;;;;;;19.05;9.40;;;;;;;;;;5091142;27;20536;-72
2022/03/14 01:34:32;;;;;;;19.30;9.70;;;;;;;;;;5102177;27;20035;-72
2022/03/14 01:36:57;;;;;;;21.65;10.13;;;;;;;;;;5096268;27;20032;-72
2022/03/14 01:39:23;;;;;;;16.70;9.52;;;;;;;;;;5100734;28;20513;-72
2022/03/14 01:41:49;;;;;;;21.80;10.20;;;;;;;;;;5106978;27;20035;-72
2022/03/14 01:44:15;;;;;;;20.17;10.35;;;;;;;;;;5107803;27;20043;-72
2022/03/14 01:46:42;;;;;;;17.95;9.77;;;;;;;;;;5110741;27;20032;-72
2022/03/14 01:49:07;;;;;;;24.27;10.07;;;;;;;;;;5106617;27;20435;-72
2022/03/14 01:51:34;;;;;;;23.83;9.68;;;;;;;;;;5120171;27;20047;-72
2022/03/14 01:54:00;;;;;;;20.15;10.00;;;;;;;;;;5102160;28;20016;-72
2022/03/14 01:56:25;;;;;;;22.30;10.95;;;;;;;;;;5114259;27;20035;-73
2022/03/14 01:58:52;;;;;;;22.27;9.75;;;;;;;;;;5104023;28;20574;-72
2022/03/14 02:01:18;;;;;;;21.58;10.70;;;;;;;;;;5098370;27;20032;-72
2022/03/14 02:03:44;;;;;;;21.55;10.57;;;;;;;;;;5104610;28;20036;-72
2022/03/14 02:06:10;;;;;;;21.40;10.23;;;;;;;;;;5105901;27;20035;-72
2022/03/14 02:08:35;;;;;;;20.92;10.55;;;;;;;;;;5107109;28;20027;-72
2022/03/14 02:11:01;;;;;;;21.10;9.48;;;;;;;;;;5109465;27;20020;-72
2022/03/14 02:13:26;;;;;;;20.42;10.13;;;;;;;;;;5105173;27;20036;-72
2022/03/14 02:15:51;;;;;;;19.00;10.00;;;;;;;;;;5106578;27;20039;-72
2022/03/14 02:18:17;;;;;;;21.63;10.60;;;;;;;;;;5104861;28;20088;-72
2022/03/14 02:20:43;;;;;;;21.73;10.25;;;;;;;;;;5090264;28;20205;-72
2022/03/14 02:23:08;;;;;;;21.05;10.05;;;;;;;;;;5100242;27;20047;-72
2022/03/14 02:25:34;;;;;;;24.15;10.48;;;;;;;;;;5105227;28;20067;-72
2022/03/14 02:27:59;;;;;;;20.20;10.07;;;;;;;;;;5099564;28;20104;-72
2022/03/14 02:30:25;;;;;;;22.35;10.02;;;;;;;;;;5086135;28;20081;-72
2022/03/14 02:32:50;;;;;;;21.60;9.93;;;;;;;;;;5100868;27;20019;-72
2022/03/14 02:35:16;;;;;;;19.70;10.00;;;;;;;;;;5100439;28;20077;-72
2022/03/14 02:37:44;;;;;;;19.15;9.88;;;;;;;;;;5104921;27;20123;-72
2022/03/14 02:40:09;;;;;;;16.85;10.10;;;;;;;;;;5092044;28;20386;-72
2022/03/14 02:42:35;;;;;;;19.30;9.85;;;;;;;;;;5104055;28;20089;-72
2022/03/14 02:45:02;;;;;;;18.98;9.70;;;;;;;;;;5104432;27;20020;-72
2022/03/14 02:47:27;;;;;;;22.50;10.15;;;;;;;;;;5115985;27;20027;-72
2022/03/14 02:49:52;;;;;;;18.23;10.07;;;;;;;;;;5107322;28;20085;-72
2022/03/14 02:52:18;;;;;;;20.92;9.75;;;;;;;;;;5100751;28;20040;-72
2022/03/14 02:54:44;;;;;;;18.90;8.88;;;;;;;;;;5101286;27;20046;-72
2022/03/14 02:57:09;;;;;;;19.10;9.05;;;;;;;;;;5091599;28;20028;-72
2022/03/14 02:59:35;;;;;;;18.30;9.52;;;;;;;;;;5113173;27;20589;-72
2022/03/14 03:02:00;;;;;;;13.57;7.13;;;;;;;;;;5107830;28;20036;-72
2022/03/14 03:04:26;;;;;;;18.05;8.10;;;;;;;;;;5108169;27;20042;-72
2022/03/14 03:06:53;;;;;;;19.55;9.48;;;;;;;;;;5103185;28;20642;-72
2022/03/14 03:09:19;;;;;;;19.98;9.23;;;;;;;;;;5092546;28;20489;-72
2022/03/14 03:11:44;;;;;;;18.10;8.60;;;;;;;;;;5101403;28;20034;-72
2022/03/14 03:14:09;;;;;;;21.38;9.32;;;;;;;;;;5107328;28;20039;-72
2022/03/14 03:16:35;;;;;;;17.13;8.82;;;;;;;;;;5103748;28;20031;-72
2022/03/14 03:19:01;;;;;;;16.02;7.18;;;;;;;;;;5108053;28;20040;-72
2022/03/14 03:21:27;;;;;;;20.33;9.00;;;;;;;;;;5100409;28;20568;-72
2022/03/14 03:23:52;;;;;;;19.33;8.60;;;;;;;;;;5106003;27;20024;-72
2022/03/14 03:26:18;;;;;;;20.98;9.60;;;;;;;;;;5110938;28;20108;-72
2022/03/14 03:28:43;;;;;;;20.60;9.10;;;;;;;;;;5108786;27;20028;-72
2022/03/14 03:31:16;;;;;;;16.73;8.70;;;;;;;;;;5100075;27;20039;-72
2022/03/14 03:33:42;;;;;;;17.95;8.57;;;;;;;;;;5113733;27;20031;-72
2022/03/14 03:36:08;;;;;;;16.77;8.63;;;;;;;;;;5104184;27;20035;-72
2022/03/14 03:38:35;;;;;;;19.08;8.73;;;;;;;;;;5107851;28;20029;-72
2022/03/14 03:41:00;;;;;;;17.77;8.32;;;;;;;;;;5096123;27;20028;-72
2022/03/14 03:43:26;;;;;;;19.13;8.63;;;;;;;;;;5113562;27;20519;-72
2022/03/14 03:45:51;;;;;;;19.33;8.70;;;;;;;;;;5111656;27;20031;-72
2022/03/14 03:48:17;;;;;;;16.95;8.93;;;;;;;;;;5112158;27;20043;-72
2022/03/14 03:50:43;;;;;;;18.60;9.20;;;;;;;;;;5112216;27;20110;-72
2022/03/14 03:53:08;;;;;;;19.05;8.77;;;;;;;;;;5116193;27;20111;-72
2022/03/14 03:55:34;;;;;;;15.45;8.40;;;;;;;;;;5098837;28;20040;-72
2022/03/14 03:58:00;;;;;;;19.23;9.55;;;;;;;;;;5091339;28;20040;-72
2022/03/14 04:00:26;;;;;;;18.20;9.00;;;;;;;;;;5104328;27;20127;-72
2022/03/14 04:02:51;;;;;;;18.55;9.13;;;;;;;;;;5113703;27;20106;-72
2022/03/14 04:05:19;;;;;;;17.48;7.68;;;;;;;;;;5119004;27;20058;-72
2022/03/14 04:07:45;;;;;;;20.45;9.02;;;;;;;;;;5107885;28;20032;-71
2022/03/14 04:10:14;;;;;;;17.45;8.15;;;;;;;;;;5117239;27;20555;-72
2022/03/14 04:12:40;;;;;;;16.77;8.32;;;;;;;;;;5104288;28;20046;-72
2022/03/14 04:15:09;;;;;;;17.05;8.10;;;;;;;;;;5097053;27;20512;-72
2022/03/14 04:17:39;;;;;;;19.35;8.27;;;;;;;;;;5108831;27;20548;-72
2022/03/14 04:20:06;;;;;;;16.27;8.68;;;;;;;;;;5103959;27;20057;-72
2022/03/14 04:22:34;;;;;;;17.15;8.75;;;;;;;;;;5105899;27;20062;-72
2022/03/14 04:25:00;;;;;;;15.48;8.15;;;;;;;;;;5110672;27;20462;-72
2022/03/14 04:27:26;;;;;;;18.75;8.63;;;;;;;;;;5111302;27;20085;-72
2022/03/14 04:29:51;;;;;;;20.45;7.78;;;;;;;;;;5109356;27;20026;-72
2022/03/14 04:32:17;;;;;;;18.08;8.13;;;;;;;;;;5109397;27;20396;-72
2022/03/14 04:34:42;;;;;;;20.17;8.45;;;;;;;;;;5110010;28;20032;-72
2022/03/14 04:37:08;;;;;;;18.77;8.27;;;;;;;;;;5105135;27;20035;-72
2022/03/14 04:39:33;;;;;;;15.30;7.15;;;;;;;;;;5108421;27;20542;-72
2022/03/14 04:41:59;;;;;;;14.95;7.20;;;;;;;;;;5110443;27;20035;-72
2022/03/14 04:44:24;;;;;;;15.60;7.68;;;;;;;;;;5110944;28;20031;-72
2022/03/14 04:46:50;;;;;;;14.23;7.53;;;;;;;;;;5098646;28;20036;-72
2022/03/14 04:49:15;;;;;;;17.65;8.02;;;;;;;;;;5089450;28;20043;-72
2022/03/14 04:51:41;;;;;;;15.50;7.30;;;;;;;;;;5105233;27;20187;-72
2022/03/14 04:54:06;;;;;;;14.88;6.90;;;;;;;;;;5110560;28;20019;-72
2022/03/14 04:56:32;;;;;;;21.13;7.80;;;;;;;;;;5110823;28;20028;-72
2022/03/14 04:58:57;;;;;;;15.98;6.82;;;;;;;;;;5110804;27;20039;-72
2022/03/14 05:01:23;;;;;;;14.23;7.05;;;;;;;;;;5105278;27;20036;-72
2022/03/14 05:03:52;;;;;;;13.40;7.05;;;;;;;;;;5108486;28;20032;-72
2022/03/14 05:06:18;;;;;;;15.63;7.22;;;;;;;;;;5105021;27;20036;-72
2022/03/14 05:08:44;;;;;;;17.67;7.60;;;;;;;;;;5109682;27;20023;-72
2022/03/14 05:11:11;;;;;;;12.25;6.82;;;;;;;;;;5109933;28;20439;-72
2022/03/14 05:13:36;;;;;;;13.15;6.22;;;;;;;;;;5099096;28;20032;-72
2022/03/14 05:16:02;;;;;;;15.10;5.78;;;;;;;;;;5091457;28;20059;-72
2022/03/14 05:18:27;;;;;;;12.20;6.03;;;;;;;;;;5089942;28;20076;-72
2022/03/14 05:20:52;;;;;;;12.30;5.68;;;;;;;;;;5101154;27;20019;-72
2022/03/14 05:23:17;;;;;;;12.82;5.50;;;;;;;;;;5116955;27;20073;-72
2022/03/14 05:25:43;;;;;;;11.68;5.70;;;;;;;;;;5117672;27;20028;-72
2022/03/14 05:28:08;;;;;;;11.18;5.75;;;;;;;;;;5109754;27;20120;-72
2022/03/14 05:30:34;;;;;;;12.27;5.70;;;;;;;;;;5111331;27;20031;-72
2022/03/14 05:32:59;;;;;;;13.07;5.20;;;;;;;;;;5112668;27;20020;-72
2022/03/14 05:35:25;;;;;;;11.88;5.20;;;;;;;;;;5100158;28;20485;-72
2022/03/14 05:37:50;;;;;;;12.38;5.43;;;;;;;;;;5100867;27;20119;-72
2022/03/14 05:40:18;;;;;;;10.88;4.80;;;;;;;;;;5108394;27;20036;-72
2022/03/14 05:42:45;;;;;;;11.52;4.78;;;;;;;;;;5096492;27;20032;-72
2022/03/14 05:45:13;;;;;;;9.05;4.82;;;;;;;;;;5095406;27;20111;-72
2022/03/14 05:47:39;;;;;;;13.63;5.55;;;;;;;;;;5107992;28;20027;-72
2022/03/14 05:50:05;;;;;;;12.73;4.95;;;;;;;;;;5109394;28;20039;-72
2022/03/14 05:52:30;;;;;;;17.95;5.80;;;;;;;;;;5108146;27;20032;-72
2022/03/14 05:54:56;;;;;;;14.48;5.28;;;;;;;;;;5100330;28;20071;-72
2022/03/14 05:57:21;;;;;;;13.18;5.35;;;;;;;;;;5101963;28;20039;-72
2022/03/14 05:59:48;;;;;;;13.48;4.63;;;;;;;;;;5101452;27;20086;-72
2022/03/14 06:02:19;;;;;;;10.45;5.13;;;;;;;;;;5110176;27;20042;-72
2022/03/14 06:04:44;;;;;;;12.50;4.90;;;;;;;;;;5129898;27;20031;-72
2022/03/14 06:07:09;;;;;;;14.73;4.93;;;;;;;;;;5115136;27;20420;-71
2022/03/14 06:09:36;;;;;;;11.27;5.22;;;;;;;;;;5112394;27;20059;-72
2022/03/14 06:12:01;;;;;;;11.25;4.90;;;;;;;;;;5108168;27;20023;-72
2022/03/14 06:14:27;;;;;;;11.02;5.70;;;;;;;;;;5092607;28;20063;-72
2022/03/14 06:16:52;;;;;;;15.05;5.25;;;;;;;;;;5098350;27;20665;-72
2022/03/14 06:19:18;;;;;;;5.97;3.75;;;;;;;;;;5107632;28;20054;-72
2022/03/14 06:21:43;;;;;;;10.90;4.88;;;;;;;;;;5095033;28;20028;-72
2022/03/14 06:24:09;;;;;;;7.93;4.35;;;;;;;;;;5105603;28;20649;-72
2022/03/14 06:26:35;;;;;;;10.07;4.30;;;;;;;;;;5108188;28;20020;-71
2022/03/14 06:29:01;;;;;;;10.63;4.30;;;;;;;;;;5105005;27;20024;-72
2022/03/14 06:31:26;;;;;;;10.02;3.95;;;;;;;;;;5099378;27;20118;-72
2022/03/14 06:33:52;;;;;;;14.40;5.05;;;;;;;;;;5107234;27;20797;-72
2022/03/14 06:36:17;;;;;;;12.40;4.45;;;;;;;;;;5102161;28;20489;-72
2022/03/14 06:38:42;;;;;;;11.00;4.90;;;;;;;;;;5095976;28;20106;-73
2022/03/14 06:41:10;;;;;;;13.57;4.38;;;;;;;;;;5098453;28;20016;-72
2022/03/14 06:43:35;;;;;;;11.40;4.32;;;;;;;;;;5107825;28;20576;-71
2022/03/14 06:46:02;;;;;;;11.95;4.85;;;;;;;;;;5090858;27;20028;-71
2022/03/14 06:48:27;;;;;;;13.35;4.65;;;;;;;;;;5104129;27;20055;-71
2022/03/14 06:50:53;;;;;;;10.80;4.38;;;;;;;;;;5098754;28;20090;-70
2022/03/14 06:53:18;;;;;;;12.93;4.45;;;;;;;;;;5100020;28;20035;-70
2022/03/14 06:55:43;;;;;;;10.15;4.18;;;;;;;;;;5107264;27;20035;-71
2022/03/14 06:58:09;;;;;;;12.50;3.95;;;;;;;;;;5104862;27;20067;-71
2022/03/14 07:00:34;;;;;;;7.85;3.90;;;;;;;;;;5099454;27;20389;-71
2022/03/14 07:03:00;;;;;;;11.13;5.25;;;;;;;;;;5103771;27;20102;-70
2022/03/14 07:05:26;;;;;;;7.65;3.92;;;;;;;;;;5095171;28;20031;-69
2022/03/14 07:07:52;;;;;;;11.65;4.82;;;;;;;;;;5105978;27;20492;-75
2022/03/14 07:10:19;;;;;;;11.15;4.20;;;;;;;;;;5105963;27;20036;-71
2022/03/14 07:12:46;;;;;;;6.95;3.38;;;;;;;;;;5105630;28;20035;-73
2022/03/14 07:15:22;;;;;;;7.97;3.25;;;;;;;;;;5101421;28;20071;-73
2022/03/14 07:17:48;;;;;;;9.35;4.43;;;;;;;;;;5102893;27;20110;-73
2022/03/14 07:20:14;;;;;;;9.75;3.78;;;;;;;;;;5097822;28;20036;-73
2022/03/14 07:22:59;;;;;;;11.75;3.67;;;;;;;;;;5102061;27;20424;-72
2022/03/14 07:25:30;;;;;;;8.32;3.38;;;;;;;;;;5100929;28;20499;-75
2022/03/14 07:27:59;;;;;;;9.98;3.75;;;;;;;;;;5103063;27;20040;-71
2022/03/14 07:30:26;;;;;;;10.00;3.58;;;;;;;;;;5099267;27;20040;-74
2022/03/14 07:32:52;;;;;;;10.00;3.30;;;;;;;;;;5094625;28;20024;-71
2022/03/14 07:35:18;;;;;;;9.23;3.53;;;;;;;;;;5092291;28;20073;-73
2022/03/14 07:37:44;;;;;;;12.18;3.83;;;;;;;;;;5096955;28;20057;-73
2022/03/14 07:40:11;;;;;;;9.85;3.20;;;;;;;;;;5104424;27;20052;-73
2022/03/14 07:42:43;;;;;;;9.65;3.55;;;;;;;;;;5104085;28;20126;-73
2022/03/14 07:45:10;;;;;;;11.07;4.97;;;;;;;;;;5103363;27;20481;-73
2022/03/14 07:47:36;;;;;;;5.60;3.08;;;;;;;;;;5101445;28;20180;-73
2022/03/14 07:50:01;;;;;;;5.88;2.60;;;;;;;;;;5075097;28;20118;-73
2022/03/14 07:52:26;;;;;;;10.63;3.25;;;;;;;;;;5083092;28;20127;-73
2022/03/14 07:54:52;;;;;;;7.63;2.80;;;;;;;;;;5080777;28;20111;-72
2022/03/14 07:57:17;;;;;;;8.52;3.53;;;;;;;;;;5077700;28;20504;-72
2022/03/14 07:59:46;;;;;;;12.75;3.13;;;;;;;;;;5078881;28;20436;-73
2022/03/14 08:02:12;;;;;;;13.85;3.47;;;;;;;;;;5078510;28;20082;-69
2022/03/14 08:04:38;;;;;;;8.75;3.15;;;;;;;;;;5081580;27;20586;-70
2022/03/14 08:07:04;;;;;;;13.23;3.45;;;;;;;;;;5093208;27;20040;-70
2022/03/14 08:09:29;;;;;;;7.45;2.80;;;;;;;;;;5091166;27;20036;-71
2022/03/14 08:11:55;;;;;;;10.23;2.90;;;;;;;;;;5077829;28;20106;-72
2022/03/14 08:14:21;;;;;;;11.60;3.42;;;;;;;;;;5107040;28;20051;-72
2022/03/14 08:16:46;;;;;;;10.43;2.92;;;;;;;;;;5103509;27;20118;-74
2022/03/14 08:19:12;;;;;;;8.70;3.22;;;;;;;;;;5093721;28;20040;-73
2022/03/14 08:21:37;;;;;;;12.82;3.50;;;;;;;;;;5081801;28;20043;-69
2022/03/14 08:24:02;;;;;;;8.77;2.95;;;;;;;;;;5096025;28;20071;-73
2022/03/14 08:26:28;;;;;;;6.88;2.80;;;;;;;;;;5087235;28;20047;-71
2022/03/14 08:28:53;;;;;;;11.50;3.17;;;;;;;;;;5100807;27;20390;-71
2022/03/14 08:31:21;;;;;;;10.18;3.08;;;;;;;;;;5091611;28;20050;-72
2022/03/14 08:33:46;;;;;;;19.40;3.35;;;;;;;;;;5100831;28;20027;-73
2022/03/14 08:36:12;;;;;;;5.60;2.67;;;;;;;;;;5110957;27;20040;-72
2022/03/14 08:38:38;;;;;;;13.38;3.22;;;;;;;;;;5107372;27;20393;-71
2022/03/14 08:41:04;;;;;;;10.15;2.97;;;;;;;;;;5107577;27;20138;-71
2022/03/14 08:43:29;;;;;;;10.85;3.22;;;;;;;;;;5104709;27;20082;-72
2022/03/14 08:45:55;;;;;;;10.25;3.70;;;;;;;;;;5095560;27;20047;-70
2022/03/14 08:48:21;;;;;;;7.40;2.90;;;;;;;;;;5104821;27;20071;-70
2022/03/14 08:50:46;;;;;;;7.50;2.67;;;;;;;;;;5111326;27;20016;-70
2022/03/14 08:53:12;;;;;;;7.35;2.95;;;;;;;;;;5102968;28;20028;-70
2022/03/14 08:55:37;;;;;;;9.18;3.40;;;;;;;;;;5099648;28;20032;-71
2022/03/14 08:58:03;;;;;;;12.02;3.75;;;;;;;;;;5101333;27;20068;-71
2022/03/14 09:00:29;;;;;;;9.55;3.88;;;;;;;;;;5104721;27;20028;-71
2022/03/14 09:02:55;;;;;;;11.65;4.30;;;;;;;;;;5108465;27;20508;-74
2022/03/14 09:05:21;;;;;;;9.30;4.65;;;;;;;;;;5103844;28;20020;-74
2022/03/14 09:07:47;;;;;;;14.70;4.35;;;;;;;;;;5076367;27;20047;-76
2022/03/14 09:10:14;;;;;;;17.33;5.25;;;;;;;;;;5099049;28;20028;-75
2022/03/14 09:12:42;;;;;;;10.50;3.63;;;;;;;;;;5114704;27;20104;-75
2022/03/14 09:15:08;;;;;;;10.45;3.72;;;;;;;;;;5104529;28;20019;-75
2022/03/14 09:17:35;;;;;;;16.80;7.88;;;;;;;;;;5108351;27;20089;-74
2022/03/14 09:20:05;;;;;;;22.58;10.75;;;;;;;;;;5107507;27;20036;-76
2022/03/14 09:22:31;;;;;;;24.52;8.60;;;;;;;;;;5106502;28;20031;-74
2022/03/14 09:24:57;;;;;;;18.92;9.82;;;;;;;;;;5102990;28;20034;-74
2022/03/14 09:27:23;;;;;;;14.13;6.63;;;;;;;;;;5106140;27;20023;-72
2022/03/14 09:29:49;;;;;;;14.35;5.47;;;;;;;;;;5108368;28;20038;-77
2022/03/14 09:32:16;;;;;;;11.48;5.03;;;;;;;;;;5108031;27;20070;-77
2022/03/14 09:34:42;;;;;;;12.77;4.15;;;;;;;;;;5107330;27;20783;-72
2022/03/14 09:37:08;;;;;;;15.30;4.07;;;;;;;;;;5107497;28;20028;-73
2022/03/14 09:39:34;;;;;;;18.58;5.00;;;;;;;;;;5113708;27;20035;-73
2022/03/14 09:42:01;;;;;;;6.20;3.53;;;;;;;;;;5103199;27;20023;-73
2022/03/14 09:44:28;;;;;;;10.65;3.50;;;;;;;;;;5106683;27;20051;-75
2022/03/14 09:46:58;;;;;;;6.65;2.95;;;;;;;;;;5105672;28;20082;-71
2022/03/14 09:49:26;;;;;;;11.98;4.00;;;;;;;;;;5098659;27;20047;-73
2022/03/14 09:51:53;;;;;;;13.05;3.95;;;;;;;;;;5090845;28;20533;-70
2022/03/14 09:54:21;;;;;;;11.27;3.85;;;;;;;;;;5088128;27;20020;-71
2022/03/14 09:56:48;;;;;;;13.07;3.90;;;;;;;;;;5079663;28;20041;-74
2022/03/14 09:59:13;;;;;;;9.10;3.60;;;;;;;;;;5085955;28;20048;-73
2022/03/14 10:01:40;;;;;;;8.35;3.47;;;;;;;;;;5091423;28;20063;-75
2022/03/14 10:04:07;;;;;;;10.70;3.70;;;;;;;;;;5106606;27;20074;-74
2022/03/14 10:06:33;;;;;;;14.25;4.40;;;;;;;;;;5095816;27;20059;-76
2022/03/14 10:08:58;;;;;;;6.00;2.88;;;;;;;;;;5100834;28;20058;-75
2022/03/14 10:11:23;;;;;;;8.73;3.85;;;;;;;;;;5087535;28;20586;-73
2022/03/14 10:13:49;;;;;;;10.23;4.57;;;;;;;;;;5092388;27;20552;-73
2022/03/14 10:16:14;;;;;;;10.43;3.97;;;;;;;;;;5086929;28;20036;-76
2022/03/14 10:19:01;;;;;;;9.27;3.67;;;;;;;;;;5086545;28;20480;-75
2022/03/14 10:21:37;;;;;;;7.57;3.13;;;;;;;;;;5089235;28;20118;-74
2022/03/14 10:24:10;;;;;;;10.75;3.67;;;;;;;;;;5080314;28;20040;-74
2022/03/14 10:26:40;;;;;;;15.02;4.28;;;;;;;;;;5084841;28;20051;-72
2022/03/14 10:29:12;;;;;;;11.70;3.47;;;;;;;;;;5086858;28;20028;-76
2022/03/14 10:31:43;;;;;;;12.30;3.47;;;;;;;;;;5099258;28;20027;-76
2022/03/14 10:34:12;;;;;;;9.55;3.67;;;;;;;;;;5091033;27;20036;-73
2022/03/14 10:36:49;;;;;;;12.45;4.05;;;;;;;;;;5087674;28;20060;-75
2022/03/14 10:39:20;;;;;;;8.38;3.47;;;;;;;;;;5104787;27;20035;-72
2022/03/14 10:42:12;;;;;;;9.32;3.42;;;;;;;;;;5101972;28;20563;-76
2022/03/14 10:44:40;;;;;;;11.82;3.30;;;;;;;;;;5085116;28;20118;-75
2022/03/14 10:47:08;;;;;;;9.80;3.30;;;;;;;;;;5072214;28;20040;-73
2022/03/14 10:49:35;;;;;;;10.60;3.00;;;;;;;;;;5084712;28;20096;-74
2022/03/14 10:52:03;;;;;;;10.55;3.10;;;;;;;;;;5082469;28;20044;-76
2022/03/14 10:54:29;;;;;;;12.40;4.03;;;;;;;;;;5070646;28;20028;-75
2022/03/14 10:57:05;;;;;;;10.80;2.50;;;;;;;;;;5087721;28;20039;-75
2022/03/14 10:59:40;;;;;;;5.32;1.80;;;;;;;;;;5085693;28;20052;-77
2022/03/14 11:02:11;;;;;;;9.98;3.28;;;;;;;;;;5086393;28;20039;-76
2022/03/14 11:04:44;;;;;;;12.40;3.17;;;;;;;;;;5095557;28;20535;-75
2022/03/14 11:07:10;;;;;;;10.63;2.45;;;;;;;;;;5104877;28;20045;-76
2022/03/14 11:09:37;;;;;;;12.90;3.28;;;;;;;;;;5106867;27;20051;-77
2022/03/14 11:12:25;;;;;;;7.10;3.00;;;;;;;;;;5113298;28;20102;-77
2022/03/14 11:14:56;;;;;;;13.20;2.60;;;;;;;;;;5069130;28;20780;-77
2022/03/14 11:17:24;;;;;;;11.85;2.53;;;;;;;;;;5081140;28;20060;-73
2022/03/14 11:19:50;;;;;;;8.85;2.30;;;;;;;;;;5097310;28;20031;-76
2022/03/14 11:22:17;;;;;;;11.85;2.47;;;;;;;;;;5106350;27;20733;-76
2022/03/14 11:24:44;;;;;;;8.82;2.65;;;;;;;;;;5106245;27;20036;-77
2022/03/14 11:27:23;;;;;;;5.85;1.90;;;;;;;;;;5106431;28;20019;-71
2022/03/14 11:29:51;;;;;;;12.40;2.33;;;;;;;;;;5106279;28;20030;-77
2022/03/14 11:32:18;;;;;;;10.07;2.67;;;;;;;;;;5106290;27;20517;-78
2022/03/14 11:34:48;;;;;;;11.20;2.45;;;;;;;;;;5095526;27;20035;-73
2022/03/14 11:37:14;;;;;;;8.77;2.40;;;;;;;;;;5106122;28;20038;-76
2022/03/14 11:39:40;;;;;;;11.13;2.45;;;;;;;;;;5106457;28;20032;-76
2022/03/14 11:42:06;;;;;;;10.25;2.47;;;;;;;;;;5106303;28;20034;-73
2022/03/14 11:44:32;;;;;;;7.35;2.28;;;;;;;;;;5094963;28;20032;-77
2022/03/14 11:46:59;;;;;;;9.23;2.20;;;;;;;;;;5105843;28;20039;-78
2022/03/14 11:49:29;;;;;;;13.13;5.55;;;;;;;;;;5103685;27;20039;-77
2022/03/14 11:52:28;;;;;;;5.00;1.70;;;;;;;;;;5090614;28;20032;-77
2022/03/14 11:54:59;;;;;;;6.70;2.67;;;;;;;;;;5074569;28;20591;-76
2022/03/14 11:57:33;;;;;;;10.48;2.45;;;;;;;;;;5081561;27;20798;-72
2022/03/14 12:00:21;;;;;;;9.23;1.73;;;;;;;;;;5081555;28;20047;-71
2022/03/14 12:02:52;;;;;;;6.13;2.10;;;;;;;;;;5099811;28;20048;-72
2022/03/14 12:05:22;;;;;;;5.85;1.60;;;;;;;;;;5109165;27;20039;-72
2022/03/14 12:07:47;;;;;;;11.10;1.88;;;;;;;;;;5107881;28;20510;-72
2022/03/14 12:10:32;;;;;;;9.15;2.38;;;;;;;;;;5108636;28;20116;-72
2022/03/14 12:13:01;;;;;;;7.97;1.98;;;;;;;;;;5107029;27;20110;-72
2022/03/14 12:15:41;;;;;;;14.63;2.42;;;;;;;;;;5097183;28;20476;-72
2022/03/14 12:18:25;;;;;;;5.47;1.60;;;;;;;;;;5109049;28;20139;-72
2022/03/14 12:21:04;;;;;;;7.40;1.52;;;;;;;;;;5106667;28;20923;-74
2022/03/14 12:23:32;;;;;;;10.75;1.70;;;;;;;;;;5107130;28;20397;-73
2022/03/14 12:25:59;;;;;;;6.68;1.70;;;;;;;;;;5108017;28;20035;-74
2022/03/14 12:28:29;;;;;;;3.80;1.23;;;;;;;;;;5108972;28;20027;-73
2022/03/14 12:31:14;;;;;;;5.80;1.55;;;;;;;;;;5108508;27;20040;-73
2022/03/14 12:33:44;;;;;;;8.48;2.08;;;;;;;;;;5105483;28;20036;-73
2022/03/14 12:36:24;;;;;;;4.93;1.40;;;;;;;;;;5104851;27;20027;-74
2022/03/14 12:39:05;;;;;;;7.57;1.58;;;;;;;;;;5105850;27;21092;-73
2022/03/14 12:41:31;;;;;;;7.47;1.98;;;;;;;;;;5109077;27;20036;-73
2022/03/14 12:43:57;;;;;;;10.10;1.52;;;;;;;;;;5108278;28;20765;-73
2022/03/14 12:46:23;;;;;;;5.07;1.83;;;;;;;;;;5107473;28;20092;-73
2022/03/14 12:48:52;;;;;;;4.57;1.10;;;;;;;;;;5108262;28;20023;-73
2022/03/14 12:51:31;;;;;;;23.52;15.35;;;;;;;;;;5106314;27;20026;-73
2022/03/14 12:53:58;;;;;;;8.48;2.03;;;;;;;;;;5107765;28;20035;-73
2022/03/14 12:56:29;;;;;;;5.32;1.75;;;;;;;;;;5107988;28;20161;-73
2022/03/14 12:59:09;;;;;;;4.55;1.60;;;;;;;;;;5093654;28;20100;-73
2022/03/14 13:01:37;;;;;;;6.85;2.22;;;;;;;;;;5105388;27;20380;-73
2022/03/14 13:04:12;;;;;;;6.10;1.60;;;;;;;;;;5114762;27;20523;-74
2022/03/14 13:06:41;;;;;;;7.30;1.70;;;;;;;;;;5108544;27;20180;-73
2022/03/14 13:09:07;;;;;;;4.18;1.40;;;;;;;;;;5131596;27;20706;-76
2022/03/14 13:11:38;;;;;;;6.63;1.63;;;;;;;;;;5112447;27;20070;-73
2022/03/14 13:14:15;;;;;;;10.65;2.03;;;;;;;;;;5114605;27;20032;-75
2022/03/14 13:16:42;;;;;;;6.82;1.50;;;;;;;;;;5108843;27;20137;-77
2022/03/14 13:19:19;;;;;;;8.43;2.20;;;;;;;;;;5109396;27;20027;-75
2022/03/14 13:21:45;;;;;;;7.75;2.00;;;;;;;;;;5113429;27;20024;-76
2022/03/14 13:24:10;;;;;;;6.65;1.70;;;;;;;;;;5107670;28;20030;-76
2022/03/14 13:26:42;;;;;;;11.60;1.52;;;;;;;;;;5107477;28;20408;-74
2022/03/14 13:29:08;;;;;;;5.95;1.80;;;;;;;;;;5112745;27;20446;-75
2022/03/14 13:31:41;;;;;;;10.82;3.10;;;;;;;;;;5126518;27;20592;-74
2022/03/14 13:34:10;;;;;;;11.95;2.83;;;;;;;;;;5128362;27;20119;-75
2022/03/14 13:36:41;;;;;;;7.65;2.53;;;;;;;;;;5098956;27;20035;-76
2022/03/14 13:39:13;;;;;;;8.63;1.95;;;;;;;;;;5092290;28;20043;-76
2022/03/14 13:41:39;;;;;;;7.68;3.10;;;;;;;;;;5085054;28;20406;-76
2022/03/14 13:44:12;;;;;;;4.95;1.58;;;;;;;;;;5090407;28;20459;-74
2022/03/14 13:46:39;;;;;;;5.13;1.75;;;;;;;;;;5076591;28;20036;-76
2022/03/14 13:49:17;;;;;;;8.20;1.60;;;;;;;;;;5085709;28;20066;-76
2022/03/14 13:51:50;;;;;;;3.95;1.42;;;;;;;;;;5079762;28;20036;-69
2022/03/14 13:54:30;;;;;;;6.20;1.95;;;;;;;;;;5082883;28;20265;-69
2022/03/14 13:56:58;;;;;;;3.65;1.45;;;;;;;;;;5084378;28;20024;-69
2022/03/14 13:59:31;;;;;;;5.97;1.67;;;;;;;;;;5082687;28;20044;-70
2022/03/14 14:01:56;;;;;;;5.32;1.70;;;;;;;;;;5081924;28;20048;-72
2022/03/14 14:04:26;;;;;;;7.80;1.52;;;;;;;;;;5079475;28;20089;-70
2022/03/14 14:06:53;;;;;;;6.82;1.52;;;;;;;;;;5091441;28;20069;-70
2022/03/14 14:09:24;;;;;;;8.43;1.75;;;;;;;;;;5084484;27;20027;-70
2022/03/14 14:12:06;;;;;;;6.35;1.40;;;;;;;;;;5101045;27;20106;-71
2022/03/14 14:14:33;;;;;;;3.20;1.23;;;;;;;;;;5106178;27;20035;-69
2022/03/14 14:17:14;;;;;;;6.20;1.50;;;;;;;;;;5088225;27;20040;-71
2022/03/14 14:20:03;;;;;;;5.28;1.67;;;;;;;;;;5099549;28;20027;-69
2022/03/14 14:22:32;;;;;;;8.48;2.25;;;;;;;;;;5102306;27;20040;-70
2022/03/14 14:24:58;;;;;;;5.18;1.50;;;;;;;;;;5107476;27;20034;-70
2022/03/14 14:27:26;;;;;;;10.07;1.75;;;;;;;;;;5098856;27;20038;-71
2022/03/14 14:29:57;;;;;;;11.32;2.50;;;;;;;;;;5102359;27;20059;-70
2022/03/14 14:32:23;;;;;;;7.22;1.80;;;;;;;;;;5096201;28;20127;-69
2022/03/14 14:34:49;;;;;;;7.00;1.65;;;;;;;;;;5105696;28;20193;-73
2022/03/14 14:37:14;;;;;;;5.18;1.60;;;;;;;;;;5104633;28;21110;-68